sensor_id;sensor_type;location;lat;lon;timestamp;P1;durP1;ratioP1;P2;durP2;ratioP2
12224;SDS011;6175;50.956;11.064;2023-06-10T00:01:19;6.57;;;5.97;;
12224;SDS011;6175;50.956;11.064;2023-06-10T00:03:47;7.30;;;6.63;;
12224;SDS011;6175;50.956;11.064;2023-06-10T00:06:15;7.07;;;6.32;;
12224;SDS011;6175;50.956;11.064;2023-06-10T00:08:42;6.82;;;6.22;;
12224;SDS011;6175;50.956;11.064;2023-06-10T00:11:09;6.22;;;5.65;;
12224;SDS011;6175;50.956;11.064;2023-06-10T00:13:37;6.90;;;6.30;;
12224;SDS011;6175;50.956;11.064;2023-06-10T00:16:05;7.38;;;6.68;;
12224;SDS011;6175;50.956;11.064;2023-06-10T00:18:32;7.18;;;6.47;;
12224;SDS011;6175;50.956;11.064;2023-06-10T00:21:02;6.90;;;6.28;;
12224;SDS011;6175;50.956;11.064;2023-06-10T00:23:30;7.28;;;6.57;;
12224;SDS011;6175;50.956;11.064;2023-06-10T00:26:02;6.97;;;6.32;;
12224;SDS011;6175;50.956;11.064;2023-06-10T00:28:30;7.30;;;6.63;;
12224;SDS011;6175;50.956;11.064;2023-06-10T00:30:58;6.70;;;6.10;;
12224;SDS011;6175;50.956;11.064;2023-06-10T00:33:25;6.40;;;5.80;;
12224;SDS011;6175;50.956;11.064;2023-06-10T00:35:53;7.20;;;6.03;;
12224;SDS011;6175;50.956;11.064;2023-06-10T00:38:20;6.60;;;6.00;;
12224;SDS011;6175;50.956;11.064;2023-06-10T00:40:47;6.72;;;6.13;;
12224;SDS011;6175;50.956;11.064;2023-06-10T00:43:14;6.43;;;5.93;;
12224;SDS011;6175;50.956;11.064;2023-06-10T00:45:41;6.43;;;5.85;;
12224;SDS011;6175;50.956;11.064;2023-06-10T00:48:10;6.60;;;6.00;;
12224;SDS011;6175;50.956;11.064;2023-06-10T00:50:37;6.70;;;6.03;;
12224;SDS011;6175;50.956;11.064;2023-06-10T00:53:05;7.10;;;6.22;;
12224;SDS011;6175;50.956;11.064;2023-06-10T00:55:32;6.55;;;5.78;;
12224;SDS011;6175;50.956;11.064;2023-06-10T00:57:59;6.88;;;6.28;;
12224;SDS011;6175;50.956;11.064;2023-06-10T01:00:27;6.90;;;5.57;;
12224;SDS011;6175;50.956;11.064;2023-06-10T01:02:54;7.15;;;5.95;;
12224;SDS011;6175;50.956;11.064;2023-06-10T01:05:23;7.03;;;6.32;;
12224;SDS011;6175;50.956;11.064;2023-06-10T01:07:53;6.57;;;5.97;;
12224;SDS011;6175;50.956;11.064;2023-06-10T01:10:28;6.18;;;5.63;;
12224;SDS011;6175;50.956;11.064;2023-06-10T01:13:00;7.10;;;6.07;;
12224;SDS011;6175;50.956;11.064;2023-06-10T01:15:28;6.10;;;5.60;;
12224;SDS011;6175;50.956;11.064;2023-06-10T01:17:56;6.43;;;5.63;;
12224;SDS011;6175;50.956;11.064;2023-06-10T01:20:26;6.57;;;5.97;;
12224;SDS011;6175;50.956;11.064;2023-06-10T01:22:55;5.97;;;5.38;;
12224;SDS011;6175;50.956;11.064;2023-06-10T01:25:22;6.05;;;5.47;;
12224;SDS011;6175;50.956;11.064;2023-06-10T01:27:53;6.20;;;5.70;;
12224;SDS011;6175;50.956;11.064;2023-06-10T01:30:22;6.65;;;6.05;;
12224;SDS011;6175;50.956;11.064;2023-06-10T01:32:54;6.55;;;5.72;;
12224;SDS011;6175;50.956;11.064;2023-06-10T01:35:22;6.38;;;5.78;;
12224;SDS011;6175;50.956;11.064;2023-06-10T01:37:51;5.78;;;5.28;;
12224;SDS011;6175;50.956;11.064;2023-06-10T01:40:21;5.80;;;5.30;;
12224;SDS011;6175;50.956;11.064;2023-06-10T01:42:50;5.50;;;5.00;;
12224;SDS011;6175;50.956;11.064;2023-06-10T01:45:18;7.07;;;6.38;;
12224;SDS011;6175;50.956;11.064;2023-06-10T01:47:45;8.02;;;5.93;;
12224;SDS011;6175;50.956;11.064;2023-06-10T01:50:12;7.07;;;6.32;;
12224;SDS011;6175;50.956;11.064;2023-06-10T01:52:40;6.50;;;5.90;;
12224;SDS011;6175;50.956;11.064;2023-06-10T01:55:07;7.15;;;5.95;;
12224;SDS011;6175;50.956;11.064;2023-06-10T01:57:36;6.43;;;5.82;;
12224;SDS011;6175;50.956;11.064;2023-06-10T02:00:03;6.53;;;5.88;;
12224;SDS011;6175;50.956;11.064;2023-06-10T02:02:30;6.18;;;5.60;;
12224;SDS011;6175;50.956;11.064;2023-06-10T02:04:57;5.97;;;5.47;;
12224;SDS011;6175;50.956;11.064;2023-06-10T02:07:25;5.50;;;5.00;;
12224;SDS011;6175;50.956;11.064;2023-06-10T02:09:52;5.93;;;5.43;;
12224;SDS011;6175;50.956;11.064;2023-06-10T02:12:19;5.95;;;5.13;;
12224;SDS011;6175;50.956;11.064;2023-06-10T02:14:48;6.40;;;5.80;;
12224;SDS011;6175;50.956;11.064;2023-06-10T02:17:15;5.95;;;5.35;;
12224;SDS011;6175;50.956;11.064;2023-06-10T02:19:43;5.88;;;5.38;;
12224;SDS011;6175;50.956;11.064;2023-06-10T02:22:17;6.47;;;5.88;;
12224;SDS011;6175;50.956;11.064;2023-06-10T02:24:44;6.32;;;5.68;;
12224;SDS011;6175;50.956;11.064;2023-06-10T02:27:11;6.13;;;5.40;;
12224;SDS011;6175;50.956;11.064;2023-06-10T02:29:39;5.68;;;5.18;;
12224;SDS011;6175;50.956;11.064;2023-06-10T02:32:08;6.38;;;5.75;;
12224;SDS011;6175;50.956;11.064;2023-06-10T02:34:35;5.82;;;5.25;;
12224;SDS011;6175;50.956;11.064;2023-06-10T02:37:02;5.85;;;5.35;;
12224;SDS011;6175;50.956;11.064;2023-06-10T02:39:29;5.70;;;5.20;;
12224;SDS011;6175;50.956;11.064;2023-06-10T02:41:57;5.55;;;5.00;;
12224;SDS011;6175;50.956;11.064;2023-06-10T02:44:24;6.10;;;5.50;;
12224;SDS011;6175;50.956;11.064;2023-06-10T02:46:51;5.57;;;5.07;;
12224;SDS011;6175;50.956;11.064;2023-06-10T02:49:19;6.07;;;5.55;;
12224;SDS011;6175;50.956;11.064;2023-06-10T02:51:46;5.88;;;5.38;;
12224;SDS011;6175;50.956;11.064;2023-06-10T02:54:15;6.03;;;5.43;;
12224;SDS011;6175;50.956;11.064;2023-06-10T02:56:42;6.63;;;5.28;;
12224;SDS011;6175;50.956;11.064;2023-06-10T02:59:10;6.03;;;5.43;;
12224;SDS011;6175;50.956;11.064;2023-06-10T03:01:37;6.25;;;5.65;;
12224;SDS011;6175;50.956;11.064;2023-06-10T03:04:05;6.28;;;5.50;;
12224;SDS011;6175;50.956;11.064;2023-06-10T03:06:33;6.28;;;5.65;;
12224;SDS011;6175;50.956;11.064;2023-06-10T03:09:01;6.30;;;5.70;;
12224;SDS011;6175;50.956;11.064;2023-06-10T03:11:29;5.93;;;5.35;;
12224;SDS011;6175;50.956;11.064;2023-06-10T03:13:57;5.38;;;4.88;;
12224;SDS011;6175;50.956;11.064;2023-06-10T03:16:24;5.82;;;5.03;;
12224;SDS011;6175;50.956;11.064;2023-06-10T03:18:52;5.65;;;4.90;;
12224;SDS011;6175;50.956;11.064;2023-06-10T03:21:20;5.80;;;5.28;;
12224;SDS011;6175;50.956;11.064;2023-06-10T03:23:48;5.97;;;5.38;;
12224;SDS011;6175;50.956;11.064;2023-06-10T03:26:15;5.78;;;5.20;;
12224;SDS011;6175;50.956;11.064;2023-06-10T03:28:42;4.93;;;4.53;;
12224;SDS011;6175;50.956;11.064;2023-06-10T03:31:09;5.25;;;4.75;;
12224;SDS011;6175;50.956;11.064;2023-06-10T03:33:37;7.20;;;5.50;;
12224;SDS011;6175;50.956;11.064;2023-06-10T03:36:04;5.53;;;4.95;;
12224;SDS011;6175;50.956;11.064;2023-06-10T03:38:31;6.53;;;4.78;;
12224;SDS011;6175;50.956;11.064;2023-06-10T03:40:59;5.43;;;5.03;;
12224;SDS011;6175;50.956;11.064;2023-06-10T03:43:26;5.63;;;5.13;;
12224;SDS011;6175;50.956;11.064;2023-06-10T03:45:54;5.72;;;5.18;;
12224;SDS011;6175;50.956;11.064;2023-06-10T03:48:21;6.10;;;5.38;;
12224;SDS011;6175;50.956;11.064;2023-06-10T03:50:48;6.15;;;5.30;;
12224;SDS011;6175;50.956;11.064;2023-06-10T03:53:15;5.47;;;4.97;;
12224;SDS011;6175;50.956;11.064;2023-06-10T03:55:43;5.00;;;4.50;;
12224;SDS011;6175;50.956;11.064;2023-06-10T03:58:12;4.90;;;4.40;;
12224;SDS011;6175;50.956;11.064;2023-06-10T04:00:39;4.97;;;4.45;;
12224;SDS011;6175;50.956;11.064;2023-06-10T04:03:07;5.70;;;4.78;;
12224;SDS011;6175;50.956;11.064;2023-06-10T04:05:39;6.13;;;5.28;;
12224;SDS011;6175;50.956;11.064;2023-06-10T04:08:07;6.50;;;5.03;;
12224;SDS011;6175;50.956;11.064;2023-06-10T04:10:35;5.75;;;5.25;;
12224;SDS011;6175;50.956;11.064;2023-06-10T04:13:02;5.38;;;4.88;;
12224;SDS011;6175;50.956;11.064;2023-06-10T04:15:31;4.85;;;4.45;;
12224;SDS011;6175;50.956;11.064;2023-06-10T04:17:58;5.40;;;4.40;;
12224;SDS011;6175;50.956;11.064;2023-06-10T04:20:26;4.55;;;4.15;;
12224;SDS011;6175;50.956;11.064;2023-06-10T04:22:53;7.07;;;4.80;;
12224;SDS011;6175;50.956;11.064;2023-06-10T04:25:20;5.38;;;4.78;;
12224;SDS011;6175;50.956;11.064;2023-06-10T04:27:49;5.18;;;4.68;;
12224;SDS011;6175;50.956;11.064;2023-06-10T04:30:16;5.05;;;4.53;;
12224;SDS011;6175;50.956;11.064;2023-06-10T04:32:45;4.95;;;4.53;;
12224;SDS011;6175;50.956;11.064;2023-06-10T04:35:13;5.38;;;4.88;;
12224;SDS011;6175;50.956;11.064;2023-06-10T04:37:40;5.22;;;4.22;;
12224;SDS011;6175;50.956;11.064;2023-06-10T04:40:08;4.45;;;4.05;;
12224;SDS011;6175;50.956;11.064;2023-06-10T04:42:35;5.28;;;4.47;;
12224;SDS011;6175;50.956;11.064;2023-06-10T04:45:03;4.30;;;3.90;;
12224;SDS011;6175;50.956;11.064;2023-06-10T04:47:30;5.55;;;4.20;;
12224;SDS011;6175;50.956;11.064;2023-06-10T04:49:59;4.07;;;3.72;;
12224;SDS011;6175;50.956;11.064;2023-06-10T04:52:26;4.50;;;3.90;;
12224;SDS011;6175;50.956;11.064;2023-06-10T04:54:53;4.90;;;4.43;;
12224;SDS011;6175;50.956;11.064;2023-06-10T04:57:21;4.85;;;4.10;;
12224;SDS011;6175;50.956;11.064;2023-06-10T04:59:48;5.53;;;4.32;;
12224;SDS011;6175;50.956;11.064;2023-06-10T05:02:15;5.10;;;4.60;;
12224;SDS011;6175;50.956;11.064;2023-06-10T05:04:42;4.55;;;4.10;;
12224;SDS011;6175;50.956;11.064;2023-06-10T05:07:11;5.90;;;4.53;;
12224;SDS011;6175;50.956;11.064;2023-06-10T05:09:38;4.38;;;3.95;;
12224;SDS011;6175;50.956;11.064;2023-06-10T05:12:05;6.97;;;4.25;;
12224;SDS011;6175;50.956;11.064;2023-06-10T05:14:33;6.93;;;4.60;;
12224;SDS011;6175;50.956;11.064;2023-06-10T05:17:01;7.20;;;4.80;;
12224;SDS011;6175;50.956;11.064;2023-06-10T05:19:28;6.03;;;4.65;;
12224;SDS011;6175;50.956;11.064;2023-06-10T05:21:55;6.50;;;4.40;;
12224;SDS011;6175;50.956;11.064;2023-06-10T05:24:24;4.82;;;4.38;;
12224;SDS011;6175;50.956;11.064;2023-06-10T05:26:51;6.18;;;4.45;;
12224;SDS011;6175;50.956;11.064;2023-06-10T05:29:18;6.35;;;4.60;;
12224;SDS011;6175;50.956;11.064;2023-06-10T05:31:45;5.05;;;4.55;;
12224;SDS011;6175;50.956;11.064;2023-06-10T05:34:12;8.82;;;4.88;;
12224;SDS011;6175;50.956;11.064;2023-06-10T05:36:39;6.47;;;4.50;;
12224;SDS011;6175;50.956;11.064;2023-06-10T05:39:07;5.95;;;4.85;;
12224;SDS011;6175;50.956;11.064;2023-06-10T05:41:35;4.50;;;4.07;;
12224;SDS011;6175;50.956;11.064;2023-06-10T05:44:02;6.53;;;4.75;;
12224;SDS011;6175;50.956;11.064;2023-06-10T05:46:30;6.28;;;4.55;;
12224;SDS011;6175;50.956;11.064;2023-06-10T05:48:57;6.45;;;4.50;;
12224;SDS011;6175;50.956;11.064;2023-06-10T05:51:24;5.25;;;4.75;;
12224;SDS011;6175;50.956;11.064;2023-06-10T05:53:52;7.13;;;4.65;;
12224;SDS011;6175;50.956;11.064;2023-06-10T05:56:19;5.10;;;4.60;;
12224;SDS011;6175;50.956;11.064;2023-06-10T05:58:48;5.07;;;4.40;;
12224;SDS011;6175;50.956;11.064;2023-06-10T06:01:18;6.32;;;5.05;;
12224;SDS011;6175;50.956;11.064;2023-06-10T06:03:45;5.90;;;4.50;;
12224;SDS011;6175;50.956;11.064;2023-06-10T06:06:12;4.65;;;4.15;;
12224;SDS011;6175;50.956;11.064;2023-06-10T06:08:39;8.90;;;4.90;;
12224;SDS011;6175;50.956;11.064;2023-06-10T06:11:07;6.00;;;4.72;;
12224;SDS011;6175;50.956;11.064;2023-06-10T06:13:34;7.82;;;5.60;;
12224;SDS011;6175;50.956;11.064;2023-06-10T06:16:02;7.32;;;5.07;;
12224;SDS011;6175;50.956;11.064;2023-06-10T06:18:30;7.72;;;5.00;;
12224;SDS011;6175;50.956;11.064;2023-06-10T06:20:57;5.97;;;5.10;;
12224;SDS011;6175;50.956;11.064;2023-06-10T06:23:24;6.38;;;4.78;;
12224;SDS011;6175;50.956;11.064;2023-06-10T06:25:51;6.25;;;5.43;;
12224;SDS011;6175;50.956;11.064;2023-06-10T06:28:18;7.32;;;4.93;;
12224;SDS011;6175;50.956;11.064;2023-06-10T06:30:46;6.45;;;4.53;;
12224;SDS011;6175;50.956;11.064;2023-06-10T06:33:14;6.43;;;4.75;;
12224;SDS011;6175;50.956;11.064;2023-06-10T06:35:41;5.30;;;3.95;;
12224;SDS011;6175;50.956;11.064;2023-06-10T06:38:08;7.40;;;5.43;;
12224;SDS011;6175;50.956;11.064;2023-06-10T06:40:35;5.10;;;4.60;;
12224;SDS011;6175;50.956;11.064;2023-06-10T06:43:03;7.20;;;4.80;;
12224;SDS011;6175;50.956;11.064;2023-06-10T06:45:30;6.30;;;5.47;;
12224;SDS011;6175;50.956;11.064;2023-06-10T06:47:58;6.53;;;4.78;;
12224;SDS011;6175;50.956;11.064;2023-06-10T06:50:27;6.03;;;5.43;;
12224;SDS011;6175;50.956;11.064;2023-06-10T06:52:54;5.47;;;4.90;;
12224;SDS011;6175;50.956;11.064;2023-06-10T06:55:21;8.40;;;5.78;;
12224;SDS011;6175;50.956;11.064;2023-06-10T06:57:48;7.07;;;5.43;;
12224;SDS011;6175;50.956;11.064;2023-06-10T07:00:15;6.13;;;5.15;;
12224;SDS011;6175;50.956;11.064;2023-06-10T07:02:43;6.45;;;5.05;;
12224;SDS011;6175;50.956;11.064;2023-06-10T07:05:10;5.50;;;4.78;;
12224;SDS011;6175;50.956;11.064;2023-06-10T07:07:38;8.68;;;6.00;;
12224;SDS011;6175;50.956;11.064;2023-06-10T07:10:06;5.93;;;5.07;;
12224;SDS011;6175;50.956;11.064;2023-06-10T07:12:33;6.88;;;5.38;;
12224;SDS011;6175;50.956;11.064;2023-06-10T07:15:00;8.40;;;5.72;;
12224;SDS011;6175;50.956;11.064;2023-06-10T07:17:28;7.28;;;5.85;;
12224;SDS011;6175;50.956;11.064;2023-06-10T07:19:55;5.97;;;4.65;;
12224;SDS011;6175;50.956;11.064;2023-06-10T07:22:24;7.30;;;6.20;;
12224;SDS011;6175;50.956;11.064;2023-06-10T07:24:53;6.50;;;5.75;;
12224;SDS011;6175;50.956;11.064;2023-06-10T07:27:20;8.38;;;6.22;;
12224;SDS011;6175;50.956;11.064;2023-06-10T07:29:47;8.57;;;6.50;;
12224;SDS011;6175;50.956;11.064;2023-06-10T07:32:16;8.88;;;6.25;;
12224;SDS011;6175;50.956;11.064;2023-06-10T07:34:45;6.47;;;5.18;;
12224;SDS011;6175;50.956;11.064;2023-06-10T07:37:12;8.20;;;6.13;;
12224;SDS011;6175;50.956;11.064;2023-06-10T07:39:39;8.30;;;6.00;;
12224;SDS011;6175;50.956;11.064;2023-06-10T07:42:09;8.52;;;5.53;;
12224;SDS011;6175;50.956;11.064;2023-06-10T07:44:36;8.43;;;6.50;;
12224;SDS011;6175;50.956;11.064;2023-06-10T07:47:04;6.68;;;5.80;;
12224;SDS011;6175;50.956;11.064;2023-06-10T07:49:31;7.03;;;6.32;;
12224;SDS011;6175;50.956;11.064;2023-06-10T07:51:58;6.55;;;5.97;;
12224;SDS011;6175;50.956;11.064;2023-06-10T07:54:25;8.95;;;6.63;;
12224;SDS011;6175;50.956;11.064;2023-06-10T07:56:52;6.20;;;5.60;;
12224;SDS011;6175;50.956;11.064;2023-06-10T07:59:21;6.90;;;5.03;;
12224;SDS011;6175;50.956;11.064;2023-06-10T08:01:48;8.18;;;6.85;;
12224;SDS011;6175;50.956;11.064;2023-06-10T08:04:15;7.38;;;6.68;;
12224;SDS011;6175;50.956;11.064;2023-06-10T08:06:42;8.50;;;5.95;;
12224;SDS011;6175;50.956;11.064;2023-06-10T08:09:09;8.35;;;6.07;;
12224;SDS011;6175;50.956;11.064;2023-06-10T08:11:36;8.20;;;7.38;;
12224;SDS011;6175;50.956;11.064;2023-06-10T08:14:04;7.40;;;6.57;;
12224;SDS011;6175;50.956;11.064;2023-06-10T08:16:32;8.65;;;6.53;;
12224;SDS011;6175;50.956;11.064;2023-06-10T08:18:59;9.55;;;7.35;;
12224;SDS011;6175;50.956;11.064;2023-06-10T08:21:26;7.35;;;6.65;;
12224;SDS011;6175;50.956;11.064;2023-06-10T08:23:54;9.57;;;6.20;;
12224;SDS011;6175;50.956;11.064;2023-06-10T08:26:21;7.53;;;6.68;;
12224;SDS011;6175;50.956;11.064;2023-06-10T08:28:48;6.65;;;5.70;;
12224;SDS011;6175;50.956;11.064;2023-06-10T08:31:16;8.68;;;6.47;;
12224;SDS011;6175;50.956;11.064;2023-06-10T08:33:44;7.90;;;6.32;;
12224;SDS011;6175;50.956;11.064;2023-06-10T08:36:11;9.55;;;7.03;;
12224;SDS011;6175;50.956;11.064;2023-06-10T08:38:39;8.57;;;6.75;;
12224;SDS011;6175;50.956;11.064;2023-06-10T08:41:06;7.15;;;6.38;;
12224;SDS011;6175;50.956;11.064;2023-06-10T08:43:34;7.18;;;6.47;;
12224;SDS011;6175;50.956;11.064;2023-06-10T08:46:05;7.63;;;6.32;;
12224;SDS011;6175;50.956;11.064;2023-06-10T08:48:35;8.25;;;7.20;;
12224;SDS011;6175;50.956;11.064;2023-06-10T08:51:07;8.27;;;6.82;;
12224;SDS011;6175;50.956;11.064;2023-06-10T08:53:36;8.13;;;6.55;;
12224;SDS011;6175;50.956;11.064;2023-06-10T08:56:04;7.53;;;6.70;;
12224;SDS011;6175;50.956;11.064;2023-06-10T08:58:32;9.13;;;7.05;;
12224;SDS011;6175;50.956;11.064;2023-06-10T09:01:05;7.63;;;6.15;;
12224;SDS011;6175;50.956;11.064;2023-06-10T09:03:32;6.25;;;5.65;;
12224;SDS011;6175;50.956;11.064;2023-06-10T09:06:00;8.75;;;7.40;;
12224;SDS011;6175;50.956;11.064;2023-06-10T09:08:29;7.95;;;6.70;;
12224;SDS011;6175;50.956;11.064;2023-06-10T09:10:56;7.10;;;6.40;;
12224;SDS011;6175;50.956;11.064;2023-06-10T09:13:23;8.30;;;6.22;;
12224;SDS011;6175;50.956;11.064;2023-06-10T09:15:50;8.45;;;6.63;;
12224;SDS011;6175;50.956;11.064;2023-06-10T09:18:17;11.07;;;6.50;;
12224;SDS011;6175;50.956;11.064;2023-06-10T09:20:44;7.28;;;6.53;;
12224;SDS011;6175;50.956;11.064;2023-06-10T09:23:11;7.82;;;6.97;;
12224;SDS011;6175;50.956;11.064;2023-06-10T09:25:40;9.45;;;7.35;;
12224;SDS011;6175;50.956;11.064;2023-06-10T09:28:12;9.73;;;7.15;;
12224;SDS011;6175;50.956;11.064;2023-06-10T09:30:40;9.43;;;6.65;;
12224;SDS011;6175;50.956;11.064;2023-06-10T09:33:10;7.18;;;6.55;;
12224;SDS011;6175;50.956;11.064;2023-06-10T09:35:37;9.73;;;6.97;;
12224;SDS011;6175;50.956;11.064;2023-06-10T09:38:11;7.05;;;5.82;;
12224;SDS011;6175;50.956;11.064;2023-06-10T09:40:44;7.28;;;6.57;;
12224;SDS011;6175;50.956;11.064;2023-06-10T09:43:14;7.18;;;6.40;;
12224;SDS011;6175;50.956;11.064;2023-06-10T09:45:42;8.07;;;6.38;;
12224;SDS011;6175;50.956;11.064;2023-06-10T09:48:09;6.85;;;6.15;;
12224;SDS011;6175;50.956;11.064;2023-06-10T09:50:41;6.78;;;6.18;;
12224;SDS011;6175;50.956;11.064;2023-06-10T09:53:09;8.52;;;6.45;;
12224;SDS011;6175;50.956;11.064;2023-06-10T09:55:37;6.25;;;5.65;;
12224;SDS011;6175;50.956;11.064;2023-06-10T09:58:05;6.72;;;6.13;;
12224;SDS011;6175;50.956;11.064;2023-06-10T10:00:33;6.60;;;5.93;;
12224;SDS011;6175;50.956;11.064;2023-06-10T10:03:00;6.13;;;5.63;;
12224;SDS011;6175;50.956;11.064;2023-06-10T10:05:28;6.38;;;5.57;;
12224;SDS011;6175;50.956;11.064;2023-06-10T10:07:55;6.75;;;6.03;;
12224;SDS011;6175;50.956;11.064;2023-06-10T10:10:23;6.63;;;5.95;;
12224;SDS011;6175;50.956;11.064;2023-06-10T10:12:52;7.30;;;6.05;;
12224;SDS011;6175;50.956;11.064;2023-06-10T10:15:23;7.55;;;6.25;;
12224;SDS011;6175;50.956;11.064;2023-06-10T10:17:56;6.70;;;6.00;;
12224;SDS011;6175;50.956;11.064;2023-06-10T10:20:29;6.50;;;5.90;;
12224;SDS011;6175;50.956;11.064;2023-06-10T10:22:56;6.40;;;5.80;;
12224;SDS011;6175;50.956;11.064;2023-06-10T10:25:25;6.93;;;6.32;;
12224;SDS011;6175;50.956;11.064;2023-06-10T10:27:57;9.32;;;6.53;;
12224;SDS011;6175;50.956;11.064;2023-06-10T10:30:29;7.50;;;6.80;;
12224;SDS011;6175;50.956;11.064;2023-06-10T10:33:00;7.25;;;6.50;;
12224;SDS011;6175;50.956;11.064;2023-06-10T10:35:31;7.88;;;6.65;;
12224;SDS011;6175;50.956;11.064;2023-06-10T10:37:59;6.70;;;6.10;;
12224;SDS011;6175;50.956;11.064;2023-06-10T10:40:26;7.38;;;6.10;;
12224;SDS011;6175;50.956;11.064;2023-06-10T10:42:57;7.78;;;6.68;;
12224;SDS011;6175;50.956;11.064;2023-06-10T10:45:27;7.28;;;6.55;;
12224;SDS011;6175;50.956;11.064;2023-06-10T10:47:55;6.93;;;6.32;;
12224;SDS011;6175;50.956;11.064;2023-06-10T10:50:23;6.95;;;6.22;;
12224;SDS011;6175;50.956;11.064;2023-06-10T10:52:52;7.30;;;6.60;;
12224;SDS011;6175;50.956;11.064;2023-06-10T10:55:21;6.60;;;5.97;;
12224;SDS011;6175;50.956;11.064;2023-06-10T10:57:55;7.13;;;6.43;;
12224;SDS011;6175;50.956;11.064;2023-06-10T11:00:30;7.03;;;6.40;;
12224;SDS011;6175;50.956;11.064;2023-06-10T11:03:00;6.80;;;6.20;;
12224;SDS011;6175;50.956;11.064;2023-06-10T11:05:35;7.13;;;6.53;;
12224;SDS011;6175;50.956;11.064;2023-06-10T11:08:03;7.38;;;6.35;;
12224;SDS011;6175;50.956;11.064;2023-06-10T11:10:31;7.93;;;6.25;;
12224;SDS011;6175;50.956;11.064;2023-06-10T11:12:59;8.95;;;6.47;;
12224;SDS011;6175;50.956;11.064;2023-06-10T11:15:27;6.47;;;5.88;;
12224;SDS011;6175;50.956;11.064;2023-06-10T11:18:13;9.23;;;7.40;;
12224;SDS011;6175;50.956;11.064;2023-06-10T11:20:42;7.47;;;6.78;;
12224;SDS011;6175;50.956;11.064;2023-06-10T11:26:17;7.70;;;6.95;;
12224;SDS011;6175;50.956;11.064;2023-06-10T11:31:35;7.68;;;6.97;;
12224;SDS011;6175;50.956;11.064;2023-06-10T11:34:07;7.15;;;6.20;;
12224;SDS011;6175;50.956;11.064;2023-06-10T11:36:36;7.55;;;6.85;;
12224;SDS011;6175;50.956;11.064;2023-06-10T11:39:05;10.57;;;7.10;;
12224;SDS011;6175;50.956;11.064;2023-06-10T11:41:33;7.38;;;6.68;;
12224;SDS011;6175;50.956;11.064;2023-06-10T11:44:02;7.82;;;7.15;;
12224;SDS011;6175;50.956;11.064;2023-06-10T11:46:30;8.10;;;7.40;;
12224;SDS011;6175;50.956;11.064;2023-06-10T11:48:58;13.43;;;7.07;;
12224;SDS011;6175;50.956;11.064;2023-06-10T11:51:29;7.20;;;6.60;;
12224;SDS011;6175;50.956;11.064;2023-06-10T11:53:56;8.90;;;7.63;;
12224;SDS011;6175;50.956;11.064;2023-06-10T11:56:24;9.57;;;7.05;;
12224;SDS011;6175;50.956;11.064;2023-06-10T11:58:52;8.82;;;7.90;;
12224;SDS011;6175;50.956;11.064;2023-06-10T12:01:20;7.72;;;6.95;;
12224;SDS011;6175;50.956;11.064;2023-06-10T12:03:48;7.70;;;7.00;;
12224;SDS011;6175;50.956;11.064;2023-06-10T12:06:15;8.00;;;7.20;;
12224;SDS011;6175;50.956;11.064;2023-06-10T12:08:43;8.05;;;7.30;;
12224;SDS011;6175;50.956;11.064;2023-06-10T12:11:10;8.00;;;7.10;;
12224;SDS011;6175;50.956;11.064;2023-06-10T12:13:38;8.60;;;7.45;;
12224;SDS011;6175;50.956;11.064;2023-06-10T12:16:13;8.40;;;7.60;;
12224;SDS011;6175;50.956;11.064;2023-06-10T12:18:42;7.85;;;7.15;;
12224;SDS011;6175;50.956;11.064;2023-06-10T12:21:16;8.52;;;7.70;;
12224;SDS011;6175;50.956;11.064;2023-06-10T12:24:00;7.90;;;7.10;;
12224;SDS011;6175;50.956;11.064;2023-06-10T12:26:35;8.52;;;7.65;;
12224;SDS011;6175;50.956;11.064;2023-06-10T12:29:12;7.72;;;7.03;;
12224;SDS011;6175;50.956;11.064;2023-06-10T12:34:27;7.22;;;6.63;;
12224;SDS011;6175;50.956;11.064;2023-06-10T12:36:55;7.85;;;7.07;;
12224;SDS011;6175;50.956;11.064;2023-06-10T12:39:23;8.13;;;7.43;;
12224;SDS011;6175;50.956;11.064;2023-06-10T12:41:50;8.45;;;7.65;;
12224;SDS011;6175;50.956;11.064;2023-06-10T12:44:18;9.15;;;7.90;;
12224;SDS011;6175;50.956;11.064;2023-06-10T12:46:46;7.72;;;6.88;;
12224;SDS011;6175;50.956;11.064;2023-06-10T12:49:20;8.13;;;7.30;;
12224;SDS011;6175;50.956;11.064;2023-06-10T12:51:47;7.88;;;7.18;;
12224;SDS011;6175;50.956;11.064;2023-06-10T12:54:14;8.35;;;7.47;;
12224;SDS011;6175;50.956;11.064;2023-06-10T12:56:43;8.18;;;7.30;;
12224;SDS011;6175;50.956;11.064;2023-06-10T12:59:10;8.05;;;7.30;;
12224;SDS011;6175;50.956;11.064;2023-06-10T13:01:38;7.68;;;6.97;;
12224;SDS011;6175;50.956;11.064;2023-06-10T13:04:05;7.55;;;6.90;;
12224;SDS011;6175;50.956;11.064;2023-06-10T13:06:32;8.55;;;7.68;;
12224;SDS011;6175;50.956;11.064;2023-06-10T13:09:02;7.70;;;6.90;;
12224;SDS011;6175;50.956;11.064;2023-06-10T13:11:31;7.35;;;6.78;;
12224;SDS011;6175;50.956;11.064;2023-06-10T13:14:00;7.65;;;6.65;;
12224;SDS011;6175;50.956;11.064;2023-06-10T13:16:27;7.53;;;6.82;;
12224;SDS011;6175;50.956;11.064;2023-06-10T13:18:55;8.52;;;6.53;;
12224;SDS011;6175;50.956;11.064;2023-06-10T13:21:22;8.15;;;6.55;;
12224;SDS011;6175;50.956;11.064;2023-06-10T13:23:50;7.68;;;6.93;;
12224;SDS011;6175;50.956;11.064;2023-06-10T13:26:17;7.43;;;6.72;;
12224;SDS011;6175;50.956;11.064;2023-06-10T13:28:45;7.60;;;6.82;;
12224;SDS011;6175;50.956;11.064;2023-06-10T13:31:13;6.53;;;6.03;;
12224;SDS011;6175;50.956;11.064;2023-06-10T13:33:40;6.55;;;6.00;;
12224;SDS011;6175;50.956;11.064;2023-06-10T13:36:08;6.95;;;6.35;;
12224;SDS011;6175;50.956;11.064;2023-06-10T13:38:36;6.22;;;5.72;;
12224;SDS011;6175;50.956;11.064;2023-06-10T13:41:04;6.25;;;5.63;;
12224;SDS011;6175;50.956;11.064;2023-06-10T13:43:31;5.97;;;5.47;;
12224;SDS011;6175;50.956;11.064;2023-06-10T13:45:58;6.20;;;5.70;;
12224;SDS011;6175;50.956;11.064;2023-06-10T13:48:27;13.20;;;6.03;;
12224;SDS011;6175;50.956;11.064;2023-06-10T13:50:54;5.90;;;5.40;;
12224;SDS011;6175;50.956;11.064;2023-06-10T13:53:21;5.80;;;5.30;;
12224;SDS011;6175;50.956;11.064;2023-06-10T13:55:48;6.25;;;4.88;;
12224;SDS011;6175;50.956;11.064;2023-06-10T13:58:16;5.45;;;4.90;;
12224;SDS011;6175;50.956;11.064;2023-06-10T14:00:43;5.60;;;5.10;;
12224;SDS011;6175;50.956;11.064;2023-06-10T14:03:10;5.55;;;5.15;;
12224;SDS011;6175;50.956;11.064;2023-06-10T14:05:39;5.65;;;5.10;;
12224;SDS011;6175;50.956;11.064;2023-06-10T14:08:06;6.68;;;4.88;;
12224;SDS011;6175;50.956;11.064;2023-06-10T14:10:33;4.82;;;4.43;;
12224;SDS011;6175;50.956;11.064;2023-06-10T14:13:00;6.28;;;3.92;;
12224;SDS011;6175;50.956;11.064;2023-06-10T14:15:28;4.22;;;3.92;;
12224;SDS011;6175;50.956;11.064;2023-06-10T14:17:55;4.32;;;3.85;;
12224;SDS011;6175;50.956;11.064;2023-06-10T14:20:22;4.07;;;3.72;;
12224;SDS011;6175;50.956;11.064;2023-06-10T14:22:51;4.50;;;4.03;;
12224;SDS011;6175;50.956;11.064;2023-06-10T14:25:18;4.68;;;3.88;;
12224;SDS011;6175;50.956;11.064;2023-06-10T14:27:45;4.05;;;3.75;;
12224;SDS011;6175;50.956;11.064;2023-06-10T14:30:13;4.10;;;3.70;;
12224;SDS011;6175;50.956;11.064;2023-06-10T14:32:40;4.28;;;3.70;;
12224;SDS011;6175;50.956;11.064;2023-06-10T14:35:07;5.18;;;3.97;;
12224;SDS011;6175;50.956;11.064;2023-06-10T14:37:35;4.47;;;3.58;;
12224;SDS011;6175;50.956;11.064;2023-06-10T14:40:04;4.00;;;3.67;;
12224;SDS011;6175;50.956;11.064;2023-06-10T14:42:32;4.50;;;4.07;;
12224;SDS011;6175;50.956;11.064;2023-06-10T14:44:59;4.50;;;4.10;;
12224;SDS011;6175;50.956;11.064;2023-06-10T14:47:26;4.28;;;3.88;;
12224;SDS011;6175;50.956;11.064;2023-06-10T14:49:53;3.70;;;3.40;;
12224;SDS011;6175;50.956;11.064;2023-06-10T14:52:20;4.50;;;4.05;;
12224;SDS011;6175;50.956;11.064;2023-06-10T14:54:47;4.03;;;3.78;;
12224;SDS011;6175;50.956;11.064;2023-06-10T14:57:16;5.10;;;4.03;;
12224;SDS011;6175;50.956;11.064;2023-06-10T14:59:43;4.50;;;4.10;;
12224;SDS011;6175;50.956;11.064;2023-06-10T15:02:10;4.38;;;3.97;;